createdAt,value
2018-07-08T00:01:14.941Z,18.20
2018-07-08T00:03:43.292Z,18.10
2018-07-08T00:06:11.704Z,18.00
2018-07-08T00:08:40.066Z,18.00
2018-07-08T00:11:09.361Z,18.00
2018-07-08T00:13:37.700Z,18.00
2018-07-08T00:16:06.081Z,17.90
2018-07-08T00:18:34.477Z,17.80
2018-07-08T00:21:02.901Z,17.80
2018-07-08T00:23:31.305Z,17.80
2018-07-08T00:25:59.747Z,17.80
2018-07-08T00:28:28.125Z,17.70
2018-07-08T00:30:56.494Z,17.70
2018-07-08T00:33:25.068Z,17.60
2018-07-08T00:35:53.451Z,17.60
2018-07-08T00:38:21.836Z,17.50
2018-07-08T00:40:50.189Z,17.50
2018-07-08T00:43:18.561Z,17.50
2018-07-08T00:45:46.933Z,17.40
2018-07-08T00:48:15.300Z,17.30
2018-07-08T00:50:43.626Z,17.30
2018-07-08T00:53:11.962Z,17.30
2018-07-08T00:55:40.281Z,17.20
2018-07-08T00:58:08.641Z,17.20
2018-07-08T01:00:38.549Z,17.10
2018-07-08T01:03:08.789Z,17.20
2018-07-08T01:05:37.137Z,17.20
2018-07-08T01:08:05.734Z,17.20
2018-07-08T01:10:34.072Z,17.10
2018-07-08T01:13:02.941Z,17.10
2018-07-08T01:15:31.301Z,17.10
2018-07-08T01:17:59.677Z,17.10
2018-07-08T01:20:28.072Z,17.00
2018-07-08T01:22:56.412Z,17.00
2018-07-08T01:25:36.113Z,16.90
2018-07-08T01:28:04.493Z,16.90
2018-07-08T01:30:32.840Z,16.90
2018-07-08T01:33:01.316Z,16.90
2018-07-08T01:35:29.666Z,16.90
2018-07-08T01:37:58.060Z,16.90
2018-07-08T01:40:26.392Z,16.80
2018-07-08T01:42:54.859Z,16.70
2018-07-08T01:45:23.186Z,16.60
2018-07-08T01:47:51.533Z,16.50
2018-07-08T01:50:19.905Z,16.40
2018-07-08T01:52:48.274Z,16.40
2018-07-08T01:55:16.642Z,16.40
2018-07-08T01:57:45.043Z,16.30
2018-07-08T02:00:13.389Z,16.30
2018-07-08T02:02:41.773Z,16.30
2018-07-08T02:05:10.113Z,16.10
2018-07-08T02:07:38.488Z,16.10
2018-07-08T02:10:06.904Z,16.00
2018-07-08T02:12:35.316Z,15.90
2018-07-08T02:15:03.737Z,15.80
2018-07-08T02:17:32.094Z,15.80
2018-07-08T02:20:00.568Z,15.70
2018-07-08T02:22:28.963Z,15.70
2018-07-08T02:24:57.371Z,15.60
2018-07-08T02:27:25.765Z,15.60
2018-07-08T02:29:54.165Z,15.60
2018-07-08T02:32:22.569Z,15.50
2018-07-08T02:34:50.914Z,15.50
2018-07-08T02:37:19.310Z,15.40
2018-07-08T02:39:47.838Z,15.40
2018-07-08T02:42:16.285Z,15.40
2018-07-08T02:44:44.757Z,15.40
2018-07-08T02:47:13.146Z,15.40
2018-07-08T02:49:41.667Z,15.40
2018-07-08T02:52:10.049Z,15.40
2018-07-08T02:54:38.381Z,15.40
2018-07-08T02:57:06.733Z,15.30
2018-07-08T02:59:35.072Z,15.30
2018-07-08T03:02:03.441Z,15.30
2018-07-08T03:04:31.777Z,15.20
2018-07-08T03:07:00.109Z,15.20
2018-07-08T03:09:28.512Z,15.20
2018-07-08T03:11:56.836Z,15.20
2018-07-08T03:14:25.195Z,15.20
2018-07-08T03:16:53.533Z,15.20
2018-07-08T03:19:21.873Z,15.20
2018-07-08T03:21:50.196Z,15.10
2018-07-08T03:26:46.564Z,15.10
2018-07-08T03:29:14.929Z,15.00
2018-07-08T03:31:43.252Z,15.00
2018-07-08T03:34:11.733Z,15.00
2018-07-08T03:36:40.054Z,14.90
2018-07-08T03:39:09.264Z,14.90
2018-07-08T03:41:37.852Z,14.90
2018-07-08T03:44:07.001Z,14.90
2018-07-08T03:46:35.793Z,14.90
2018-07-08T03:49:04.157Z,14.80
2018-07-08T03:51:32.546Z,14.80
2018-07-08T03:54:00.905Z,14.80
2018-07-08T03:56:29.248Z,14.80
2018-07-08T03:58:57.604Z,14.80
2018-07-08T04:01:25.972Z,14.80
2018-07-08T04:03:54.325Z,14.90
2018-07-08T04:06:22.657Z,14.80
2018-07-08T04:08:51.041Z,14.80
2018-07-08T04:11:19.389Z,14.80
2018-07-08T04:13:47.750Z,14.70
2018-07-08T04:16:16.103Z,14.60
2018-07-08T04:18:44.461Z,14.70
2018-07-08T04:21:12.792Z,14.70
2018-07-08T04:23:41.148Z,14.70
2018-07-08T04:26:09.482Z,14.70
2018-07-08T04:28:37.824Z,14.70
2018-07-08T04:31:06.172Z,14.70
2018-07-08T04:33:34.533Z,14.70
2018-07-08T04:36:03.170Z,14.60
2018-07-08T04:38:31.521Z,14.60
2018-07-08T04:40:59.862Z,14.60
2018-07-08T04:43:28.240Z,14.60
2018-07-08T04:45:56.571Z,14.60
2018-07-08T04:48:24.910Z,14.50
2018-07-08T04:50:53.363Z,14.50
2018-07-08T04:53:21.746Z,14.50
2018-07-08T04:55:50.092Z,14.50
2018-07-08T04:58:18.425Z,14.50
2018-07-08T05:00:46.778Z,14.50
2018-07-08T05:03:15.136Z,14.50
2018-07-08T05:05:43.497Z,14.50
2018-07-08T05:08:11.830Z,14.50
2018-07-08T05:10:40.186Z,14.60
2018-07-08T05:13:08.579Z,14.60
2018-07-08T05:15:36.920Z,14.70
2018-07-08T05:20:33.562Z,14.80
2018-07-08T05:23:01.913Z,14.90
2018-07-08T05:25:30.302Z,15.00
2018-07-08T05:27:58.649Z,15.10
2018-07-08T05:30:27.029Z,15.40
2018-07-08T05:32:55.381Z,15.50
2018-07-08T05:35:23.756Z,15.70
2018-07-08T05:37:52.121Z,15.90
2018-07-08T05:40:20.482Z,16.20
2018-07-08T05:42:48.821Z,16.40
2018-07-08T05:45:17.204Z,16.50
2018-07-08T05:47:45.573Z,16.60
2018-07-08T05:50:14.025Z,16.80
2018-07-08T05:52:42.352Z,17.10
2018-07-08T05:55:10.717Z,17.20
2018-07-08T05:57:39.146Z,17.50
2018-07-08T06:00:07.817Z,17.70
2018-07-08T06:02:36.148Z,17.90
2018-07-08T06:05:04.548Z,18.10
2018-07-08T06:07:32.915Z,18.20
2018-07-08T06:10:01.261Z,18.30
2018-07-08T06:12:29.589Z,18.30
2018-07-08T06:14:58.060Z,18.40
2018-07-08T06:17:26.384Z,18.50
2018-07-08T06:19:54.720Z,18.70
2018-07-08T06:22:23.082Z,18.80
2018-07-08T06:24:51.461Z,18.90
2018-07-08T06:27:19.821Z,19.00
2018-07-08T06:29:48.189Z,18.90
2018-07-08T06:32:16.553Z,18.90
2018-07-08T06:34:44.954Z,19.00
2018-07-08T06:37:13.285Z,19.20
2018-07-08T06:39:41.666Z,19.30
2018-07-08T06:42:10.038Z,19.30
2018-07-08T06:44:38.398Z,19.30
2018-07-08T06:47:06.752Z,19.60
2018-07-08T06:49:35.085Z,19.80
2018-07-08T06:52:03.518Z,20.00
2018-07-08T06:54:31.897Z,20.00
2018-07-08T06:57:00.279Z,20.10
2018-07-08T06:59:28.645Z,20.30
2018-07-08T07:01:57.016Z,20.50
2018-07-08T07:04:25.357Z,20.40
2018-07-08T07:52:46.661Z,20.50
2018-07-08T07:55:15.017Z,21.60
2018-07-08T07:57:43.345Z,21.70
2018-07-08T08:00:11.729Z,21.90
2018-07-08T08:02:40.083Z,21.90
2018-07-08T08:05:08.637Z,22.00
2018-07-08T08:07:37.160Z,21.90
2018-07-08T08:10:05.634Z,22.00
2018-07-08T08:12:33.957Z,22.20
2018-07-08T08:15:02.466Z,22.20
2018-07-08T08:17:30.789Z,22.50
2018-07-08T08:19:59.120Z,22.80
2018-07-08T08:22:27.456Z,22.60
2018-07-08T08:24:55.841Z,22.90
2018-07-08T08:27:24.291Z,23.00
2018-07-08T08:29:52.596Z,23.40
2018-07-08T08:32:20.970Z,23.30
2018-07-08T08:34:53.867Z,23.10
2018-07-08T08:37:23.238Z,23.10
2018-07-08T08:39:52.340Z,23.10
2018-07-08T08:42:20.697Z,23.10
2018-07-08T08:44:49.771Z,23.30
2018-07-08T08:47:18.704Z,23.30
2018-07-08T08:49:48.013Z,22.90
2018-07-08T08:52:16.394Z,22.90
2018-07-08T08:54:44.753Z,23.30
2018-07-08T08:57:13.351Z,23.40
2018-07-08T08:59:41.748Z,23.60
2018-07-08T09:02:10.369Z,23.70
2018-07-08T09:04:39.561Z,23.80
2018-07-08T09:07:09.136Z,23.80
2018-07-08T09:09:37.708Z,23.80
2018-07-08T09:12:07.005Z,24.00
2018-07-08T09:14:35.541Z,23.50
2018-07-08T09:17:03.936Z,23.00
2018-07-08T09:22:00.365Z,23.30
2018-07-08T09:24:28.708Z,23.60
2018-07-08T09:26:57.109Z,23.30
2018-07-08T09:29:25.595Z,23.60
2018-07-08T09:31:53.893Z,23.70
2018-07-08T09:34:22.265Z,23.80
2018-07-08T09:36:50.626Z,23.90
2018-07-08T09:39:19.005Z,24.00
2018-07-08T09:41:47.574Z,24.00
2018-07-08T09:44:16.705Z,24.00
2018-07-08T09:46:46.051Z,24.20
2018-07-08T09:49:14.641Z,24.30
2018-07-08T09:51:43.281Z,24.20
2018-07-08T09:54:11.661Z,24.10
2018-07-08T09:56:40.185Z,23.90
2018-07-08T09:59:08.593Z,24.10
2018-07-08T10:01:41.407Z,24.10
2018-07-08T10:04:11.248Z,24.30
2018-07-08T10:06:40.538Z,24.40
2018-07-08T10:09:11.087Z,24.70
2018-07-08T10:11:39.620Z,24.60
2018-07-08T10:14:09.125Z,24.60
2018-07-08T10:16:37.418Z,24.70
2018-07-08T10:19:05.836Z,24.80
2018-07-08T10:21:34.254Z,24.80
2018-07-08T10:24:02.797Z,24.70
2018-07-08T10:26:31.169Z,24.70
2018-07-08T10:28:59.556Z,24.60
2018-07-08T10:31:39.305Z,24.80
2018-07-08T10:34:07.777Z,24.80
2018-07-08T10:36:36.124Z,24.90
2018-07-08T10:39:05.921Z,24.90
2018-07-08T10:41:34.249Z,24.30
2018-07-08T10:44:02.664Z,24.20
2018-07-08T10:46:31.033Z,24.40
2018-07-08T10:48:59.412Z,24.40
2018-07-08T10:51:27.833Z,24.50
2018-07-08T10:53:56.173Z,24.90
2018-07-08T10:56:24.512Z,25.10
2018-07-08T10:58:53.053Z,25.10
2018-07-08T11:01:21.385Z,25.30
2018-07-08T11:03:49.717Z,25.20
2018-07-08T11:06:18.037Z,25.10
2018-07-08T11:08:46.457Z,25.10
2018-07-08T11:11:14.813Z,25.30
2018-07-08T11:13:43.153Z,25.60
2018-07-08T11:16:11.502Z,25.80
2018-07-08T11:18:39.856Z,25.70
2018-07-08T11:21:08.169Z,25.50
2018-07-08T11:23:43.225Z,25.20
2018-07-08T11:26:11.581Z,24.90
2018-07-08T11:28:39.966Z,24.60
2018-07-08T11:31:08.533Z,24.50
2018-07-08T11:33:36.990Z,23.90
2018-07-08T11:36:05.376Z,23.90
2018-07-08T11:38:33.911Z,24.10
2018-07-08T11:41:02.313Z,24.20
2018-07-08T11:43:30.793Z,24.30
2018-07-08T11:45:59.125Z,24.60
2018-07-08T11:48:27.457Z,25.00
2018-07-08T11:50:55.789Z,25.10
2018-07-08T11:53:24.125Z,25.20
2018-07-08T11:55:52.436Z,24.90
2018-07-08T11:58:20.888Z,24.40
2018-07-08T12:00:49.202Z,24.40
2018-07-08T12:03:17.597Z,24.40
2018-07-08T12:05:46.057Z,24.50
2018-07-08T12:08:14.516Z,24.60
2018-07-08T12:10:42.861Z,24.70
2018-07-08T12:13:11.193Z,24.80
2018-07-08T12:15:39.501Z,25.00
2018-07-08T12:18:08.024Z,25.10
2018-07-08T12:20:36.525Z,25.00
2018-07-08T12:23:04.881Z,24.80
2018-07-08T12:25:33.284Z,24.90
2018-07-08T12:28:02.049Z,25.20
2018-07-08T12:30:30.366Z,25.40
2018-07-08T12:32:58.745Z,25.50
2018-07-08T12:35:27.130Z,25.40
2018-07-08T12:37:55.492Z,25.30
2018-07-08T12:40:23.904Z,25.10
2018-07-08T12:42:52.240Z,25.00
2018-07-08T12:45:20.605Z,25.20
2018-07-08T12:47:48.952Z,25.30
2018-07-08T12:50:17.313Z,25.20
2018-07-08T12:52:45.687Z,25.30
2018-07-08T12:55:14.013Z,25.40
2018-07-08T12:57:42.317Z,25.50
2018-07-08T13:00:11.108Z,25.60
2018-07-08T13:02:39.421Z,25.40
2018-07-08T13:05:07.817Z,25.10
2018-07-08T13:07:36.152Z,25.20
2018-07-08T13:10:05.091Z,25.40
2018-07-08T13:13:57.877Z,25.60
2018-07-08T13:16:26.318Z,25.90
2018-07-08T13:18:54.668Z,26.00
2018-07-08T13:21:23.013Z,25.90
2018-07-08T13:23:51.350Z,25.70
2018-07-08T13:26:19.703Z,25.50
2018-07-08T13:31:22.769Z,25.30
2018-07-08T13:33:51.149Z,25.40
2018-07-08T13:36:19.484Z,25.40
2018-07-08T13:38:47.828Z,25.30
2018-07-08T13:41:16.146Z,25.50
2018-07-08T13:43:44.472Z,25.70
2018-07-08T13:46:12.812Z,25.70
2018-07-08T13:48:41.137Z,25.90
2018-07-08T13:51:09.521Z,25.80
2018-07-08T13:53:37.887Z,25.90
2018-07-08T13:56:06.284Z,26.00
2018-07-08T13:58:34.618Z,26.10
2018-07-08T14:01:03.046Z,26.10
2018-07-08T14:03:31.364Z,26.20
2018-07-08T14:05:59.769Z,26.20
2018-07-08T14:08:28.117Z,26.10
2018-07-08T14:10:56.478Z,26.20
2018-07-08T14:13:24.893Z,26.20
2018-07-08T14:15:53.253Z,26.20
2018-07-08T14:18:21.601Z,26.10
2018-07-08T14:20:50.099Z,26.20
2018-07-08T14:23:18.380Z,26.00
2018-07-08T14:25:47.453Z,26.10
2018-07-08T14:28:16.630Z,26.20
2018-07-08T14:30:45.030Z,26.20
2018-07-08T14:33:13.376Z,26.30
2018-07-08T14:35:41.725Z,26.30
2018-07-08T14:38:10.069Z,26.30
2018-07-08T14:40:38.464Z,26.30
2018-07-08T14:43:06.822Z,26.20
2018-07-08T14:45:35.170Z,26.20
2018-07-08T14:48:03.544Z,26.10
2018-07-08T14:50:31.933Z,26.00
2018-07-08T14:53:00.373Z,26.00
2018-07-08T14:55:28.753Z,25.90
2018-07-08T14:57:57.099Z,26.00
2018-07-08T15:00:25.449Z,26.00
2018-07-08T15:02:53.773Z,26.10
2018-07-08T15:05:22.145Z,26.10
2018-07-08T15:07:50.549Z,26.20
2018-07-08T15:10:18.901Z,26.30
2018-07-08T15:12:47.286Z,26.10
2018-07-08T15:15:15.686Z,26.00
2018-07-08T15:17:44.021Z,25.90
2018-07-08T15:20:12.385Z,25.80
2018-07-08T15:22:40.705Z,25.70
2018-07-08T15:25:09.073Z,25.60
2018-07-08T15:27:37.374Z,25.80
2018-07-08T15:30:05.743Z,26.00
2018-07-08T15:32:34.081Z,26.00
2018-07-08T15:35:03.013Z,26.00
2018-07-08T15:37:31.365Z,26.20
2018-07-08T15:39:59.768Z,26.20
2018-07-08T15:42:28.150Z,26.10
2018-07-08T15:44:56.536Z,26.10
2018-07-08T15:47:24.934Z,26.00
2018-07-08T15:49:53.258Z,26.10
2018-07-08T15:54:49.617Z,26.00
2018-07-08T15:57:18.030Z,26.20
2018-07-08T15:59:46.476Z,26.10
2018-07-08T16:02:14.945Z,26.20
2018-07-08T16:04:43.286Z,26.20
2018-07-08T16:07:11.656Z,26.20
2018-07-08T16:09:39.961Z,26.20
2018-07-08T16:12:08.302Z,26.20
2018-07-08T16:14:36.693Z,26.10
2018-07-08T16:17:05.049Z,25.80
2018-07-08T16:19:33.386Z,25.90
2018-07-08T16:22:01.731Z,25.80
2018-07-08T16:24:30.265Z,25.90
2018-07-08T16:26:58.604Z,25.90
2018-07-08T16:29:26.940Z,26.00
2018-07-08T16:31:55.603Z,26.10
2018-07-08T16:34:23.925Z,26.10
2018-07-08T16:36:52.297Z,26.10
2018-07-08T16:39:20.630Z,25.90
2018-07-08T16:41:48.986Z,25.90
2018-07-08T16:44:17.297Z,25.90
2018-07-08T16:46:45.680Z,25.80
2018-07-08T16:49:13.993Z,25.70
2018-07-08T16:51:42.397Z,25.80
2018-07-08T16:54:10.761Z,25.80
2018-07-08T16:56:39.129Z,25.90
2018-07-08T16:59:07.462Z,25.90
2018-07-08T17:01:35.880Z,25.80
2018-07-08T17:04:04.361Z,25.80
2018-07-08T17:06:32.724Z,25.80
2018-07-08T17:09:01.189Z,25.70
2018-07-08T17:11:30.126Z,25.70
2018-07-08T17:13:58.925Z,25.50
2018-07-08T17:16:27.417Z,25.50
2018-07-08T17:18:55.837Z,25.50
2018-07-08T17:21:24.320Z,25.50
2018-07-08T17:23:52.858Z,25.50
2018-07-08T17:26:21.450Z,25.50
2018-07-08T17:28:49.929Z,25.40
2018-07-08T17:31:18.292Z,25.40
2018-07-08T17:33:46.669Z,25.40
2018-07-08T17:36:15.033Z,25.30
2018-07-08T17:38:43.373Z,25.30
2018-07-08T17:41:11.749Z,25.20
2018-07-08T17:43:40.181Z,25.20
2018-07-08T17:46:08.572Z,25.30
2018-07-08T17:48:37.371Z,25.30
2018-07-08T17:51:06.003Z,25.30
2018-07-08T17:53:34.811Z,25.20
2018-07-08T17:56:03.729Z,25.20
2018-07-08T17:58:32.077Z,25.30
2018-07-08T18:01:00.476Z,25.30
2018-07-08T18:03:28.821Z,25.30
2018-07-08T18:05:57.386Z,25.20
2018-07-08T18:08:25.744Z,25.10
2018-07-08T18:10:54.089Z,25.10
2018-07-08T18:13:22.476Z,25.10
2018-07-08T18:15:50.800Z,24.90
2018-07-08T18:18:19.768Z,24.80
2018-07-08T18:20:48.230Z,24.70
2018-07-08T18:23:16.657Z,24.80
2018-07-08T18:25:44.987Z,24.80
2018-07-08T18:28:13.549Z,24.80
2018-07-08T18:30:42.479Z,24.80
2018-07-08T18:33:10.994Z,24.70
2018-07-08T18:35:39.324Z,24.70
2018-07-08T18:38:07.677Z,24.80
2018-07-08T18:40:36.217Z,24.70
2018-07-08T18:43:05.252Z,24.70
2018-07-08T18:45:35.832Z,24.60
2018-07-08T18:48:05.610Z,24.50
2018-07-08T18:50:35.221Z,24.50
2018-07-08T18:53:05.518Z,24.50
2018-07-08T18:55:35.221Z,24.60
2018-07-08T18:58:05.355Z,24.50
2018-07-08T19:00:35.165Z,24.50
2018-07-08T19:03:05.050Z,24.40
2018-07-08T19:05:34.953Z,24.40
2018-07-08T19:08:04.365Z,24.30
2018-07-08T19:10:35.299Z,24.20
2018-07-08T19:13:05.203Z,24.20
2018-07-08T19:15:34.791Z,24.20
2018-07-08T19:18:05.673Z,24.20
2018-07-08T19:20:35.866Z,24.10
2018-07-08T19:23:04.325Z,24.00
2018-07-08T19:25:32.825Z,23.90
2018-07-08T19:28:02.657Z,23.90
2018-07-08T19:30:32.164Z,23.80
2018-07-08T19:33:01.762Z,23.70
2018-07-08T19:35:31.872Z,23.70
2018-07-08T19:38:00.494Z,23.60
2018-07-08T19:40:28.902Z,23.60
2018-07-08T19:42:57.204Z,23.50
2018-07-08T19:45:26.074Z,23.40
2018-07-08T19:47:54.950Z,23.30
2018-07-08T19:50:23.965Z,23.20
2018-07-08T19:52:52.844Z,23.20
2018-07-08T19:55:21.745Z,23.20
2018-07-08T19:57:50.132Z,23.10
2018-07-08T20:00:18.517Z,23.00
2018-07-08T20:02:46.970Z,22.90
2018-07-08T20:05:15.346Z,22.80
2018-07-08T20:07:43.888Z,22.80
2018-07-08T20:10:12.213Z,22.70
2018-07-08T20:12:40.590Z,22.60
2018-07-08T20:15:08.976Z,22.60
2018-07-08T20:17:37.400Z,22.50
2018-07-08T20:20:07.001Z,22.50
2018-07-08T20:22:35.363Z,22.40
2018-07-08T20:25:03.773Z,22.30
2018-07-08T20:27:32.153Z,22.30
2018-07-08T20:30:00.512Z,22.20
2018-07-08T20:32:28.957Z,22.20
2018-07-08T20:34:57.545Z,22.10
2018-07-08T20:37:25.901Z,22.10
2018-07-08T20:39:54.293Z,22.00
2018-07-08T20:42:22.672Z,21.90
2018-07-08T20:44:51.049Z,21.80
2018-07-08T20:47:19.416Z,21.70
2018-07-08T20:52:22.601Z,21.70
2018-07-08T20:54:50.988Z,21.60
2018-07-08T20:57:19.358Z,21.60
2018-07-08T20:59:47.861Z,21.50
2018-07-08T21:02:16.644Z,21.40
2018-07-08T21:04:44.992Z,21.30
2018-07-08T21:07:13.359Z,21.20
2018-07-08T21:09:41.753Z,21.10
2018-07-08T21:12:10.141Z,21.10
2018-07-08T21:14:38.574Z,21.00
2018-07-08T21:17:06.965Z,21.00
2018-07-08T21:19:35.525Z,20.80
2018-07-08T21:22:03.954Z,20.80
2018-07-08T21:24:32.310Z,20.80
2018-07-08T21:27:00.677Z,20.80
2018-07-08T21:29:29.101Z,20.80
2018-07-08T21:31:57.446Z,20.70
2018-07-08T21:34:25.894Z,20.80
2018-07-08T21:36:54.673Z,20.80
2018-07-08T21:39:23.001Z,20.70
2018-07-08T21:41:51.394Z,20.70
2018-07-08T21:44:19.742Z,20.70
2018-07-08T21:46:48.105Z,20.60
2018-07-08T21:49:16.481Z,20.70
2018-07-08T21:51:44.885Z,20.60
2018-07-08T21:54:13.201Z,20.50
2018-07-08T21:56:41.561Z,20.40
2018-07-08T21:59:09.885Z,20.30
2018-07-08T22:02:41.573Z,20.20
2018-07-08T22:05:09.905Z,20.10
2018-07-08T22:07:43.673Z,20.00
2018-07-08T22:10:12.018Z,20.00
2018-07-08T22:12:40.413Z,19.90
2018-07-08T22:15:08.805Z,19.90
2018-07-08T22:17:37.158Z,19.90
2018-07-08T22:20:05.517Z,19.80
2018-07-08T22:22:33.909Z,19.80
2018-07-08T22:25:02.261Z,19.80
2018-07-08T22:27:30.640Z,19.90
2018-07-08T22:29:58.961Z,19.90
2018-07-08T22:32:27.329Z,19.80
2018-07-08T22:34:55.690Z,19.90
2018-07-08T22:37:24.034Z,19.90
2018-07-08T22:39:52.377Z,19.80
2018-07-08T22:42:20.709Z,19.80
2018-07-08T22:44:49.077Z,19.70
2018-07-08T22:47:17.545Z,19.60
2018-07-08T22:49:45.937Z,19.60
2018-07-08T22:52:14.265Z,19.60
2018-07-08T22:54:42.649Z,19.50
2018-07-08T22:57:10.978Z,19.50
2018-07-08T22:59:50.802Z,19.40
2018-07-08T23:02:30.545Z,19.40
2018-07-08T23:04:58.989Z,19.30
2018-07-08T23:07:27.434Z,19.30
2018-07-08T23:09:55.794Z,19.30
2018-07-08T23:12:24.156Z,19.30
2018-07-08T23:14:52.460Z,19.30
2018-07-08T23:17:20.805Z,19.20
2018-07-08T23:19:49.158Z,19.20
2018-07-08T23:22:20.754Z,19.10
2018-07-08T23:24:49.138Z,19.00
2018-07-08T23:29:45.605Z,18.90
2018-07-08T23:32:13.953Z,18.90
2018-07-08T23:34:43.791Z,18.90
2018-07-08T23:37:12.204Z,18.80
2018-07-08T23:39:40.545Z,18.80
2018-07-08T23:42:08.900Z,18.80
2018-07-08T23:44:37.336Z,18.70
2018-07-08T23:47:05.623Z,18.70
2018-07-08T23:49:34.029Z,18.60
2018-07-08T23:52:02.410Z,18.60
2018-07-08T23:54:30.776Z,18.50
2018-07-08T23:56:59.168Z,18.50
2018-07-08T23:59:27.521Z,18.40
